createdAt,value
2017-08-02T00:01:26.807Z,19.80
2017-08-02T00:03:54.406Z,19.70
2017-08-02T00:06:22.002Z,19.70
2017-08-02T00:08:49.628Z,19.70
2017-08-02T00:11:17.227Z,19.70
2017-08-02T00:13:44.854Z,19.70
2017-08-02T00:16:12.468Z,19.70
2017-08-02T00:18:40.077Z,19.70
2017-08-02T00:21:07.724Z,19.80
2017-08-02T00:23:35.339Z,19.70
2017-08-02T00:26:02.985Z,19.70
2017-08-02T00:28:30.887Z,19.70
2017-08-02T00:30:59.266Z,19.80
2017-08-02T00:33:26.913Z,19.70
2017-08-02T00:35:54.525Z,19.80
2017-08-02T00:38:22.162Z,19.70
2017-08-02T00:40:49.780Z,19.70
2017-08-02T00:43:17.382Z,19.70
2017-08-02T00:45:45.025Z,19.80
2017-08-02T00:48:13.396Z,19.80
2017-08-02T00:50:41.040Z,19.80
2017-08-02T00:53:08.653Z,19.80
2017-08-02T00:55:36.255Z,19.80
2017-08-02T00:58:03.893Z,19.80
2017-08-02T01:00:31.509Z,19.90
2017-08-02T01:02:59.915Z,19.90
2017-08-02T01:05:27.522Z,19.80
2017-08-02T01:07:55.886Z,19.90
2017-08-02T01:10:24.304Z,19.90
2017-08-02T01:12:51.920Z,19.80
2017-08-02T01:15:19.560Z,19.90
2017-08-02T01:17:47.171Z,19.80
2017-08-02T01:20:14.784Z,19.90
2017-08-02T01:22:42.429Z,20.00
2017-08-02T01:25:10.040Z,19.90
2017-08-02T01:27:38.464Z,19.70
2017-08-02T01:30:06.075Z,19.60
2017-08-02T01:32:33.684Z,19.60
2017-08-02T01:35:02.100Z,19.60
2017-08-02T01:37:29.709Z,19.60
2017-08-02T01:39:57.338Z,19.70
2017-08-02T01:42:25.727Z,19.70
2017-08-02T01:44:53.348Z,19.70
2017-08-02T01:47:21.761Z,19.60
2017-08-02T01:49:49.363Z,19.60
2017-08-02T01:52:17.008Z,19.70
2017-08-02T01:54:45.390Z,19.70
2017-08-02T01:57:13.001Z,19.60
2017-08-02T01:59:40.657Z,19.60
2017-08-02T02:02:08.265Z,19.60
2017-08-02T02:04:35.908Z,19.70
2017-08-02T02:07:04.291Z,19.60
2017-08-02T02:09:31.913Z,19.60
2017-08-02T02:11:59.575Z,19.60
2017-08-02T02:14:27.177Z,19.60
2017-08-02T02:16:54.821Z,19.70
2017-08-02T02:19:22.424Z,19.70
2017-08-02T02:21:50.032Z,19.80
2017-08-02T02:24:17.689Z,19.80
2017-08-02T02:26:45.312Z,19.70
2017-08-02T02:29:12.948Z,19.70
2017-08-02T02:31:40.564Z,19.70
2017-08-02T02:34:08.190Z,19.70
2017-08-02T02:36:35.836Z,19.70
2017-08-02T02:39:03.452Z,19.70
2017-08-02T02:41:31.092Z,19.60
2017-08-02T02:43:58.704Z,19.60
2017-08-02T02:46:27.067Z,19.60
2017-08-02T02:48:54.704Z,19.50
2017-08-02T02:51:23.079Z,19.50
2017-08-02T02:53:51.484Z,19.60
2017-08-02T02:56:19.090Z,19.50
2017-08-02T02:58:47.474Z,19.50
2017-08-02T03:01:15.158Z,19.40
2017-08-02T03:03:42.769Z,19.50
2017-08-02T03:06:10.412Z,19.50
2017-08-02T03:08:38.033Z,19.50
2017-08-02T03:11:05.659Z,19.50
2017-08-02T03:13:33.306Z,19.50
2017-08-02T03:16:00.912Z,19.60
2017-08-02T03:18:28.552Z,19.50
2017-08-02T03:20:56.173Z,19.50
2017-08-02T03:23:24.625Z,19.50
2017-08-02T03:25:52.257Z,19.40
2017-08-02T03:28:19.885Z,19.50
2017-08-02T03:30:47.520Z,19.50
2017-08-02T03:33:15.141Z,19.50
2017-08-02T03:35:43.519Z,19.50
2017-08-02T03:38:11.175Z,19.40
2017-08-02T03:40:38.814Z,19.50
2017-08-02T03:43:06.450Z,19.50
2017-08-02T03:45:34.061Z,19.50
2017-08-02T03:48:01.670Z,19.40
2017-08-02T03:50:29.316Z,19.50
2017-08-02T03:52:56.944Z,19.40
2017-08-02T03:55:24.574Z,19.40
2017-08-02T03:57:52.950Z,19.40
2017-08-02T04:00:20.646Z,19.40
2017-08-02T04:02:48.290Z,19.40
2017-08-02T04:05:15.907Z,19.40
2017-08-02T04:07:43.567Z,19.50
2017-08-02T04:10:11.215Z,19.40
2017-08-02T04:12:38.827Z,19.40
2017-08-02T04:15:06.476Z,19.40
2017-08-02T04:17:34.085Z,19.40
2017-08-02T04:20:02.472Z,19.30
2017-08-02T04:22:30.129Z,19.30
2017-08-02T04:24:57.747Z,19.40
2017-08-02T04:27:26.119Z,19.40
2017-08-02T04:29:54.523Z,19.40
2017-08-02T04:32:22.123Z,19.30
2017-08-02T04:34:50.501Z,19.40
2017-08-02T04:37:18.151Z,19.30
2017-08-02T04:39:45.809Z,19.40
2017-08-02T04:42:17.277Z,19.40
2017-08-02T04:44:48.167Z,19.40
2017-08-02T04:47:16.095Z,19.30
2017-08-02T04:49:44.468Z,19.50
2017-08-02T04:52:12.857Z,19.60
2017-08-02T04:54:40.488Z,19.50
2017-08-02T04:57:08.115Z,19.60
2017-08-02T04:59:36.521Z,19.80
2017-08-02T05:02:04.137Z,19.80
2017-08-02T05:04:31.749Z,19.90
2017-08-02T05:06:59.389Z,20.00
2017-08-02T05:09:27.002Z,20.20
2017-08-02T05:11:54.640Z,20.20
2017-08-02T05:14:22.240Z,20.40
2017-08-02T05:16:49.865Z,20.60
2017-08-02T05:19:17.515Z,21.00
2017-08-02T05:21:45.120Z,21.20
2017-08-02T05:24:12.790Z,21.20
2017-08-02T05:26:40.441Z,21.00
2017-08-02T05:29:08.048Z,21.10
2017-08-02T05:31:35.697Z,21.10
2017-08-02T05:34:03.319Z,21.30
2017-08-02T05:36:31.699Z,21.50
2017-08-02T05:39:00.101Z,21.60
2017-08-02T05:41:27.730Z,21.50
2017-08-02T05:43:55.345Z,21.70
2017-08-02T05:46:23.761Z,21.80
2017-08-02T05:48:51.385Z,21.70
2017-08-02T05:51:18.992Z,21.90
2017-08-02T05:53:46.661Z,22.00
2017-08-02T05:56:14.264Z,22.10
2017-08-02T05:58:41.872Z,22.20
2017-08-02T06:01:09.546Z,22.20
2017-08-02T06:03:37.146Z,22.20
2017-08-02T06:06:04.758Z,22.20
2017-08-02T06:08:32.411Z,22.10
2017-08-02T06:11:06.359Z,22.10
2017-08-02T06:13:34.018Z,22.10
2017-08-02T06:16:02.696Z,22.00
2017-08-02T06:18:30.321Z,22.00
2017-08-02T06:20:57.965Z,22.10
2017-08-02T06:23:25.645Z,22.30
2017-08-02T06:25:53.307Z,22.40
2017-08-02T06:28:20.939Z,22.30
2017-08-02T06:30:48.549Z,22.30
2017-08-02T06:33:16.181Z,22.20
2017-08-02T06:35:43.787Z,22.30
2017-08-02T06:38:11.392Z,22.30
2017-08-02T06:40:39.046Z,22.30
2017-08-02T06:43:06.673Z,22.30
2017-08-02T06:45:34.298Z,22.50
2017-08-02T06:48:01.954Z,22.60
2017-08-02T06:50:29.583Z,22.90
2017-08-02T06:52:57.971Z,23.60
2017-08-02T06:55:25.613Z,23.50
2017-08-02T06:57:53.310Z,23.80
2017-08-02T07:00:20.910Z,24.20
2017-08-02T07:02:48.538Z,24.30
2017-08-02T07:05:16.904Z,25.20
2017-08-02T07:07:45.272Z,25.50
2017-08-02T07:10:13.680Z,25.40
2017-08-02T07:12:41.288Z,25.40
2017-08-02T07:15:08.913Z,25.30
2017-08-02T07:20:11.319Z,25.00
2017-08-02T07:22:38.952Z,24.90
2017-08-02T07:25:06.559Z,24.50
2017-08-02T07:27:34.165Z,24.50
2017-08-02T07:30:01.821Z,24.70
2017-08-02T07:32:29.445Z,25.00
2017-08-02T07:34:57.043Z,25.20
2017-08-02T07:37:24.676Z,25.40
2017-08-02T07:39:52.279Z,25.50
2017-08-02T07:42:19.920Z,25.90
2017-08-02T07:44:47.550Z,26.80
2017-08-02T07:47:15.164Z,27.80
2017-08-02T07:49:42.777Z,27.40
2017-08-02T07:52:11.356Z,27.30
2017-08-02T07:54:39.014Z,27.20
2017-08-02T07:57:06.675Z,26.50
2017-08-02T07:59:34.331Z,26.10
2017-08-02T08:02:01.946Z,27.20
2017-08-02T08:04:29.553Z,29.00
2017-08-02T08:06:57.198Z,30.10
2017-08-02T08:09:24.810Z,30.90
2017-08-02T08:11:52.422Z,31.50
2017-08-02T08:14:20.062Z,30.50
2017-08-02T08:16:47.673Z,29.10
2017-08-02T08:19:15.441Z,27.80
2017-08-02T08:21:43.117Z,27.50
2017-08-02T08:24:10.825Z,27.20
2017-08-02T08:26:38.450Z,26.60
2017-08-02T08:29:06.142Z,26.50
2017-08-02T08:31:33.915Z,26.10
2017-08-02T08:34:01.592Z,26.40
2017-08-02T08:36:30.064Z,26.20
2017-08-02T08:38:58.477Z,26.10
2017-08-02T08:41:26.588Z,26.00
2017-08-02T08:43:54.385Z,26.00
2017-08-02T08:46:22.107Z,25.80
2017-08-02T08:48:50.002Z,25.60
2017-08-02T08:51:18.405Z,25.50
2017-08-02T08:53:46.222Z,25.40
2017-08-02T08:56:14.629Z,25.50
2017-08-02T08:58:42.260Z,25.40
2017-08-02T09:01:10.636Z,25.20
2017-08-02T09:03:38.395Z,25.10
2017-08-02T09:06:06.081Z,25.00
2017-08-02T09:08:33.766Z,25.00
2017-08-02T09:11:01.506Z,25.00
2017-08-02T09:13:29.113Z,24.90
2017-08-02T09:15:56.759Z,24.90
2017-08-02T09:18:24.598Z,24.80
2017-08-02T09:20:52.339Z,24.70
2017-08-02T09:23:20.024Z,24.50
2017-08-02T09:25:47.616Z,24.60
2017-08-02T09:28:15.330Z,24.60
2017-08-02T09:30:42.989Z,24.70
2017-08-02T09:33:11.401Z,24.70
2017-08-02T09:35:39.158Z,24.60
2017-08-02T09:38:06.769Z,24.60
2017-08-02T09:40:34.377Z,24.50
2017-08-02T09:43:02.034Z,24.40
2017-08-02T09:45:29.701Z,24.50
2017-08-02T09:47:57.354Z,24.60
2017-08-02T09:50:24.970Z,24.90
2017-08-02T09:52:52.581Z,25.00
2017-08-02T09:55:20.238Z,25.20
2017-08-02T09:57:47.853Z,25.40
2017-08-02T10:00:15.492Z,25.50
2017-08-02T10:02:43.099Z,25.60
2017-08-02T10:05:10.806Z,25.80
2017-08-02T10:07:38.441Z,26.00
2017-08-02T10:10:06.057Z,26.30
2017-08-02T10:12:34.465Z,26.50
2017-08-02T10:15:02.112Z,26.50
2017-08-02T10:17:29.735Z,26.50
2017-08-02T10:19:57.386Z,26.50
2017-08-02T10:22:24.996Z,26.50
2017-08-02T10:24:52.640Z,26.70
2017-08-02T10:27:20.251Z,27.00
2017-08-02T10:29:47.868Z,26.90
2017-08-02T10:32:15.562Z,27.20
2017-08-02T10:34:43.165Z,27.70
2017-08-02T10:37:10.821Z,27.80
2017-08-02T10:39:38.428Z,27.90
2017-08-02T10:42:06.043Z,28.00
2017-08-02T10:44:33.694Z,28.20
2017-08-02T10:47:01.305Z,28.50
2017-08-02T10:49:28.973Z,28.50
2017-08-02T10:51:56.645Z,28.40
2017-08-02T10:54:24.297Z,28.20
2017-08-02T10:56:51.977Z,28.00
2017-08-02T10:59:19.601Z,28.50
2017-08-02T11:01:48.017Z,29.50
2017-08-02T11:04:15.723Z,29.50
2017-08-02T11:06:43.628Z,30.10
2017-08-02T11:09:11.279Z,30.70
2017-08-02T11:11:39.083Z,31.20
2017-08-02T11:14:06.727Z,31.30
2017-08-02T11:16:34.365Z,31.10
2017-08-02T11:19:02.023Z,31.10
2017-08-02T11:21:29.712Z,31.20
2017-08-02T11:23:57.312Z,30.70
2017-08-02T11:26:24.987Z,30.00
2017-08-02T11:28:57.267Z,29.60
2017-08-02T11:31:25.222Z,29.30
2017-08-02T11:33:52.868Z,29.00
2017-08-02T11:36:20.585Z,28.70
2017-08-02T11:38:48.261Z,28.90
2017-08-02T11:41:15.859Z,29.10
2017-08-02T11:43:43.491Z,29.00
2017-08-02T11:46:11.884Z,29.10
2017-08-02T11:48:39.556Z,29.00
2017-08-02T11:51:07.209Z,29.00
2017-08-02T11:53:34.830Z,28.90
2017-08-02T11:56:02.477Z,28.80
2017-08-02T11:58:30.126Z,28.90
2017-08-02T12:00:57.919Z,29.00
2017-08-02T12:03:25.682Z,29.00
2017-08-02T12:05:53.924Z,29.00
2017-08-02T12:08:21.560Z,28.70
2017-08-02T12:10:49.167Z,28.70
2017-08-02T12:13:16.774Z,28.90
2017-08-02T12:15:45.171Z,28.80
2017-08-02T12:18:12.856Z,28.70
2017-08-02T12:20:40.489Z,28.60
2017-08-02T12:23:08.114Z,28.20
2017-08-02T12:25:35.745Z,28.20
2017-08-02T12:28:03.388Z,28.10
2017-08-02T12:30:30.998Z,27.90
2017-08-02T12:32:58.729Z,27.80
2017-08-02T12:35:26.340Z,28.00
2017-08-02T12:37:54.401Z,28.30
2017-08-02T12:40:24.449Z,28.40
2017-08-02T12:42:52.271Z,28.70
2017-08-02T12:45:19.994Z,28.70
2017-08-02T12:47:47.620Z,28.70
2017-08-02T12:50:15.237Z,28.70
2017-08-02T12:52:42.873Z,28.70
2017-08-02T12:55:10.617Z,28.50
2017-08-02T12:57:38.267Z,28.20
2017-08-02T13:00:06.060Z,28.30
2017-08-02T13:02:34.441Z,28.50
2017-08-02T13:05:02.119Z,28.50
2017-08-02T13:07:29.790Z,28.50
2017-08-02T13:09:57.488Z,28.40
2017-08-02T13:12:25.106Z,28.30
2017-08-02T13:14:53.515Z,28.70
2017-08-02T13:17:21.171Z,28.70
2017-08-02T13:19:48.771Z,28.70
2017-08-02T13:22:17.185Z,29.00
2017-08-02T13:24:44.790Z,28.90
2017-08-02T13:27:12.401Z,28.90
2017-08-02T13:29:40.090Z,28.90
2017-08-02T13:32:07.793Z,28.70
2017-08-02T13:34:35.436Z,28.50
2017-08-02T13:37:03.184Z,28.60
2017-08-02T13:39:30.793Z,28.70
2017-08-02T13:41:58.680Z,28.90
2017-08-02T13:44:26.468Z,28.90
2017-08-02T13:46:54.157Z,28.90
2017-08-02T13:49:21.812Z,28.90
2017-08-02T13:51:49.599Z,28.80
2017-08-02T13:54:17.279Z,28.90
2017-08-02T13:56:44.893Z,29.10
2017-08-02T13:59:13.357Z,29.00
2017-08-02T14:01:40.993Z,28.90
2017-08-02T14:04:08.725Z,28.60
2017-08-02T14:06:36.448Z,28.50
2017-08-02T14:09:04.100Z,28.30
2017-08-02T14:11:31.765Z,28.30
2017-08-02T14:13:59.409Z,28.30
2017-08-02T14:16:27.025Z,28.20
2017-08-02T14:18:54.669Z,28.10
2017-08-02T14:21:22.289Z,28.10
2017-08-02T14:23:51.543Z,28.00
2017-08-02T14:26:19.200Z,28.00
2017-08-02T14:28:46.903Z,28.00
2017-08-02T14:31:14.629Z,28.00
2017-08-02T14:33:43.265Z,28.20
2017-08-02T14:36:11.014Z,28.20
2017-08-02T14:38:38.634Z,28.10
2017-08-02T14:41:06.252Z,27.90
2017-08-02T14:43:33.896Z,28.00
2017-08-02T14:46:01.500Z,27.80
2017-08-02T14:48:29.130Z,27.80
2017-08-02T14:50:56.731Z,27.80
2017-08-02T14:53:24.337Z,27.70
2017-08-02T14:55:51.980Z,27.60
2017-08-02T14:58:19.588Z,27.60
2017-08-02T15:00:47.233Z,27.70
2017-08-02T15:03:14.826Z,27.70
2017-08-02T15:05:42.488Z,27.70
2017-08-02T15:08:10.158Z,27.70
2017-08-02T15:10:37.759Z,27.60
2017-08-02T15:13:05.387Z,27.50
2017-08-02T15:15:32.993Z,27.40
2017-08-02T15:18:00.609Z,27.30
2017-08-02T15:20:30.196Z,27.30
2017-08-02T15:22:57.800Z,27.20
2017-08-02T15:25:25.435Z,27.40
2017-08-02T15:27:54.473Z,27.30
2017-08-02T15:30:22.847Z,27.40
2017-08-02T15:32:50.549Z,27.30
2017-08-02T15:35:18.450Z,27.60
2017-08-02T15:37:46.969Z,27.70
2017-08-02T15:40:14.584Z,27.50
2017-08-02T15:42:42.962Z,27.60
2017-08-02T15:45:11.420Z,27.50
2017-08-02T15:47:39.884Z,27.40
2017-08-02T15:50:08.305Z,27.30
2017-08-02T15:52:35.928Z,27.20
2017-08-02T15:55:04.155Z,27.20
2017-08-02T15:57:31.896Z,27.10
2017-08-02T15:59:59.617Z,27.10
2017-08-02T16:02:27.429Z,27.10
2017-08-02T16:04:55.126Z,26.90
2017-08-02T16:07:22.865Z,26.80
2017-08-02T16:09:50.559Z,26.80
2017-08-02T16:12:19.024Z,26.80
2017-08-02T16:14:46.701Z,26.70
2017-08-02T16:17:14.385Z,26.90
2017-08-02T16:19:42.032Z,27.00
2017-08-02T16:22:09.755Z,27.00
2017-08-02T16:24:37.361Z,27.10
2017-08-02T16:27:05.759Z,27.10
2017-08-02T16:29:33.457Z,27.00
2017-08-02T16:32:01.095Z,27.10
2017-08-02T16:34:28.738Z,27.00
2017-08-02T16:36:56.350Z,27.00
2017-08-02T16:39:24.047Z,27.00
2017-08-02T16:41:51.740Z,26.90
2017-08-02T16:44:19.422Z,26.90
2017-08-02T16:46:47.070Z,26.80
2017-08-02T16:49:14.691Z,26.60
2017-08-02T16:51:42.382Z,26.60
2017-08-02T16:54:10.038Z,26.70
2017-08-02T16:56:38.459Z,26.50
2017-08-02T16:59:06.118Z,26.40
2017-08-02T17:01:33.732Z,26.40
2017-08-02T17:04:01.379Z,26.40
2017-08-02T17:06:28.980Z,26.30
2017-08-02T17:08:57.353Z,26.20
2017-08-02T17:11:24.993Z,26.20
2017-08-02T17:13:53.364Z,26.20
2017-08-02T17:16:21.765Z,26.20
2017-08-02T17:18:49.376Z,26.20
2017-08-02T17:21:17.761Z,26.20
2017-08-02T17:23:45.412Z,26.10
2017-08-02T17:26:13.024Z,26.10
2017-08-02T17:28:41.445Z,26.20
2017-08-02T17:31:09.068Z,26.10
2017-08-02T17:33:36.691Z,26.20
2017-08-02T17:36:05.103Z,26.20
2017-08-02T17:38:32.743Z,26.20
2017-08-02T17:41:00.376Z,26.20
2017-08-02T17:43:27.984Z,26.20
2017-08-02T17:45:56.361Z,26.00
2017-08-02T17:48:23.992Z,26.00
2017-08-02T17:50:52.358Z,25.90
2017-08-02T17:53:19.998Z,25.90
2017-08-02T17:55:47.602Z,25.80
2017-08-02T17:58:15.202Z,25.60
2017-08-02T18:00:43.633Z,25.50
2017-08-02T18:03:11.249Z,25.40
2017-08-02T18:05:38.885Z,25.40
2017-08-02T18:08:06.527Z,25.30
2017-08-02T18:10:34.152Z,25.20
2017-08-02T18:13:02.565Z,25.00
2017-08-02T18:15:30.168Z,25.00
2017-08-02T18:17:58.618Z,24.80
2017-08-02T18:20:26.993Z,24.70
2017-08-02T18:22:55.372Z,24.60
2017-08-02T18:25:23.029Z,24.50
2017-08-02T18:27:50.652Z,24.50
2017-08-02T18:30:18.305Z,24.40
2017-08-02T18:32:45.940Z,24.30
2017-08-02T18:35:13.652Z,24.20
2017-08-02T18:37:41.305Z,24.10
2017-08-02T18:40:08.917Z,24.10
2017-08-02T18:42:36.650Z,24.00
2017-08-02T18:45:04.257Z,24.00
2017-08-02T18:47:31.866Z,24.00
2017-08-02T18:49:59.533Z,23.90
2017-08-02T18:52:27.149Z,23.90
2017-08-02T18:54:54.791Z,23.80
2017-08-02T18:57:22.430Z,23.80
2017-08-02T18:59:50.046Z,23.80
2017-08-02T19:02:17.765Z,23.80
2017-08-02T19:04:45.377Z,23.80
2017-08-02T19:07:13.030Z,23.80
2017-08-02T19:09:40.649Z,23.80
2017-08-02T19:12:08.276Z,23.80
2017-08-02T19:14:35.937Z,23.80
2017-08-02T19:17:03.548Z,23.70
2017-08-02T19:19:31.199Z,23.70
2017-08-02T19:21:58.841Z,23.60
2017-08-02T19:24:26.475Z,23.60
2017-08-02T19:26:54.136Z,23.60
2017-08-02T19:29:21.752Z,23.50
2017-08-02T19:31:49.439Z,23.50
2017-08-02T19:34:17.127Z,23.40
2017-08-02T19:36:44.736Z,23.40
2017-08-02T19:39:12.385Z,23.40
2017-08-02T19:41:40.069Z,23.40
2017-08-02T19:44:07.766Z,23.30
2017-08-02T19:46:35.488Z,23.30
2017-08-02T19:49:03.966Z,23.20
2017-08-02T19:51:31.612Z,23.20
2017-08-02T19:53:59.243Z,23.20
2017-08-02T19:56:28.021Z,23.20
2017-08-02T19:58:55.631Z,23.20
2017-08-02T20:01:23.248Z,23.20
2017-08-02T20:03:51.661Z,23.20
2017-08-02T20:06:19.284Z,23.10
2017-08-02T20:08:46.927Z,23.10
2017-08-02T20:11:14.735Z,23.00
2017-08-02T20:13:42.370Z,23.10
2017-08-02T20:16:10.060Z,23.00
2017-08-02T20:18:37.689Z,22.90
2017-08-02T20:21:05.357Z,22.90
2017-08-02T20:23:33.727Z,22.70
2017-08-02T20:26:01.340Z,22.60
2017-08-02T20:28:29.067Z,22.50
2017-08-02T20:30:56.716Z,22.50
2017-08-02T20:33:24.357Z,22.40
2017-08-02T20:35:51.956Z,22.40
2017-08-02T20:38:19.594Z,22.40
2017-08-02T20:40:48.008Z,22.20
2017-08-02T20:43:15.637Z,22.20
2017-08-02T20:45:43.300Z,22.20
2017-08-02T20:48:10.912Z,22.10
2017-08-02T20:50:38.518Z,22.00
2017-08-02T20:53:06.182Z,21.90
2017-08-02T20:55:33.803Z,21.90
2017-08-02T20:58:01.474Z,22.00
2017-08-02T21:00:29.097Z,21.80
2017-08-02T21:02:56.704Z,21.80
2017-08-02T21:05:24.363Z,21.70
2017-08-02T21:07:52.018Z,21.70
2017-08-02T21:10:19.710Z,21.60
2017-08-02T21:12:47.315Z,21.70
2017-08-02T21:15:14.936Z,21.60
2017-08-02T21:17:42.590Z,21.50
2017-08-02T21:20:10.243Z,21.60
2017-08-02T21:22:37.879Z,21.60
2017-08-02T21:25:05.509Z,21.60
2017-08-02T21:27:33.133Z,21.40
2017-08-02T21:30:01.594Z,21.40
2017-08-02T21:32:29.896Z,21.30
2017-08-02T21:34:57.760Z,21.30
2017-08-02T21:37:25.381Z,21.20
2017-08-02T21:39:53.002Z,21.20
2017-08-02T21:42:21.556Z,21.10
2017-08-02T21:44:49.173Z,21.10
2017-08-02T21:47:16.805Z,21.00
2017-08-02T21:49:44.426Z,20.90
2017-08-02T21:52:12.812Z,20.90
2017-08-02T21:54:40.476Z,20.90
2017-08-02T21:57:08.123Z,20.90
2017-08-02T21:59:35.786Z,20.90
2017-08-02T22:02:03.402Z,20.80
2017-08-02T22:04:32.538Z,20.80
2017-08-02T22:07:00.175Z,20.80
2017-08-02T22:09:27.783Z,20.80
2017-08-02T22:11:55.448Z,20.70
2017-08-02T22:14:23.075Z,20.80
2017-08-02T22:16:50.699Z,20.70
2017-08-02T22:19:18.351Z,20.70
2017-08-02T22:21:45.969Z,20.60
2017-08-02T22:24:14.403Z,20.60
2017-08-02T22:26:42.029Z,20.50
2017-08-02T22:29:09.672Z,20.60
2017-08-02T22:31:37.369Z,20.50
2017-08-02T22:34:05.768Z,20.50
2017-08-02T22:36:33.404Z,20.50
2017-08-02T22:39:01.021Z,20.50
2017-08-02T22:41:28.629Z,20.50
2017-08-02T22:43:56.273Z,20.50
2017-08-02T22:46:23.879Z,20.50
2017-08-02T22:48:52.284Z,20.40
2017-08-02T22:51:19.915Z,20.30
2017-08-02T22:53:47.521Z,20.30
2017-08-02T22:56:15.927Z,20.30
2017-08-02T22:58:43.550Z,20.20
2017-08-02T23:01:11.199Z,20.30
2017-08-02T23:03:38.811Z,20.30
2017-08-02T23:06:06.429Z,20.20
2017-08-02T23:08:34.081Z,20.30
2017-08-02T23:11:01.687Z,20.30
2017-08-02T23:13:29.335Z,20.30
2017-08-02T23:15:56.962Z,20.20
2017-08-02T23:18:25.345Z,20.20
2017-08-02T23:20:52.992Z,20.10
2017-08-02T23:23:20.617Z,20.20
2017-08-02T23:25:49.072Z,20.30
2017-08-02T23:28:16.736Z,20.30
2017-08-02T23:30:45.108Z,20.30
2017-08-02T23:33:12.752Z,20.20
2017-08-02T23:35:40.374Z,20.20
2017-08-02T23:38:08.793Z,20.20
2017-08-02T23:40:37.241Z,20.30
2017-08-02T23:43:04.858Z,20.20
2017-08-02T23:45:33.264Z,20.30
2017-08-02T23:48:00.905Z,20.20
2017-08-02T23:50:28.553Z,20.20
2017-08-02T23:52:56.174Z,20.20
2017-08-02T23:55:24.545Z,20.20
2017-08-02T23:57:52.180Z,20.10
